sensor_id;sensor_type;location;lat;lon;timestamp;P1;durP1;ratioP1;P2;durP2;ratioP2
48629;SDS011;34426;52.180;4.462;2023-04-09T00:00:19;37.42;;;29.42;;
48629;SDS011;34426;52.180;4.462;2023-04-09T00:02:46;39.47;;;30.52;;
48629;SDS011;34426;52.180;4.462;2023-04-09T00:05:13;37.80;;;31.85;;
48629;SDS011;34426;52.180;4.462;2023-04-09T00:07:40;41.20;;;32.33;;
48629;SDS011;34426;52.180;4.462;2023-04-09T00:10:08;38.83;;;30.08;;
48629;SDS011;34426;52.180;4.462;2023-04-09T00:12:35;39.03;;;32.13;;
48629;SDS011;34426;52.180;4.462;2023-04-09T00:15:05;41.88;;;31.98;;
48629;SDS011;34426;52.180;4.462;2023-04-09T00:17:33;41.33;;;31.50;;
48629;SDS011;34426;52.180;4.462;2023-04-09T00:20:00;41.20;;;32.10;;
48629;SDS011;34426;52.180;4.462;2023-04-09T00:22:28;40.38;;;31.30;;
48629;SDS011;34426;52.180;4.462;2023-04-09T00:24:55;43.08;;;31.48;;
48629;SDS011;34426;52.180;4.462;2023-04-09T00:27:22;40.05;;;31.10;;
48629;SDS011;34426;52.180;4.462;2023-04-09T00:29:50;39.53;;;33.13;;
48629;SDS011;34426;52.180;4.462;2023-04-09T00:32:21;44.28;;;31.92;;
48629;SDS011;34426;52.180;4.462;2023-04-09T00:34:48;43.75;;;33.42;;
48629;SDS011;34426;52.180;4.462;2023-04-09T00:37:16;45.47;;;32.80;;
48629;SDS011;34426;52.180;4.462;2023-04-09T00:39:43;40.63;;;32.95;;
48629;SDS011;34426;52.180;4.462;2023-04-09T00:42:10;42.25;;;32.15;;
48629;SDS011;34426;52.180;4.462;2023-04-09T00:44:38;42.42;;;34.60;;
48629;SDS011;34426;52.180;4.462;2023-04-09T00:47:05;43.72;;;33.28;;
48629;SDS011;34426;52.180;4.462;2023-04-09T00:49:34;44.08;;;34.85;;
48629;SDS011;34426;52.180;4.462;2023-04-09T00:52:02;43.30;;;34.05;;
48629;SDS011;34426;52.180;4.462;2023-04-09T00:54:29;42.00;;;33.90;;
48629;SDS011;34426;52.180;4.462;2023-04-09T00:56:57;45.67;;;33.85;;
48629;SDS011;34426;52.180;4.462;2023-04-09T00:59:25;48.00;;;35.22;;
48629;SDS011;34426;52.180;4.462;2023-04-09T01:01:53;46.67;;;34.88;;
48629;SDS011;34426;52.180;4.462;2023-04-09T01:04:21;44.30;;;34.35;;
48629;SDS011;34426;52.180;4.462;2023-04-09T01:06:52;44.90;;;33.65;;
48629;SDS011;34426;52.180;4.462;2023-04-09T01:09:25;45.08;;;34.38;;
48629;SDS011;34426;52.180;4.462;2023-04-09T01:11:58;45.67;;;35.90;;
48629;SDS011;34426;52.180;4.462;2023-04-09T01:14:37;47.40;;;35.03;;
48629;SDS011;34426;52.180;4.462;2023-04-09T01:17:11;44.40;;;35.13;;
48629;SDS011;34426;52.180;4.462;2023-04-09T01:19:46;47.60;;;36.22;;
48629;SDS011;34426;52.180;4.462;2023-04-09T01:22:27;44.92;;;35.78;;
48629;SDS011;34426;52.180;4.462;2023-04-09T01:25:03;44.97;;;35.50;;
48629;SDS011;34426;52.180;4.462;2023-04-09T01:27:45;46.78;;;36.10;;
48629;SDS011;34426;52.180;4.462;2023-04-09T01:30:22;50.25;;;36.58;;
48629;SDS011;34426;52.180;4.462;2023-04-09T01:32:51;48.22;;;37.63;;
48629;SDS011;34426;52.180;4.462;2023-04-09T01:35:19;51.30;;;36.45;;
48629;SDS011;34426;52.180;4.462;2023-04-09T01:37:47;49.88;;;37.10;;
48629;SDS011;34426;52.180;4.462;2023-04-09T01:40:16;49.85;;;38.75;;
48629;SDS011;34426;52.180;4.462;2023-04-09T01:42:43;47.88;;;37.63;;
48629;SDS011;34426;52.180;4.462;2023-04-09T01:45:13;47.42;;;37.15;;
48629;SDS011;34426;52.180;4.462;2023-04-09T01:47:44;49.85;;;37.15;;
48629;SDS011;34426;52.180;4.462;2023-04-09T01:50:11;51.85;;;37.50;;
48629;SDS011;34426;52.180;4.462;2023-04-09T01:52:39;49.95;;;37.65;;
48629;SDS011;34426;52.180;4.462;2023-04-09T01:55:07;51.25;;;38.80;;
48629;SDS011;34426;52.180;4.462;2023-04-09T01:57:34;54.60;;;38.83;;
48629;SDS011;34426;52.180;4.462;2023-04-09T02:00:02;52.03;;;39.03;;
48629;SDS011;34426;52.180;4.462;2023-04-09T02:02:31;52.55;;;38.40;;
48629;SDS011;34426;52.180;4.462;2023-04-09T02:05:08;54.40;;;40.97;;
48629;SDS011;34426;52.180;4.462;2023-04-09T02:07:37;64.63;;;40.83;;
48629;SDS011;34426;52.180;4.462;2023-04-09T02:10:08;56.88;;;42.03;;
48629;SDS011;34426;52.180;4.462;2023-04-09T02:12:36;56.22;;;40.95;;
48629;SDS011;34426;52.180;4.462;2023-04-09T02:15:06;55.97;;;40.83;;
48629;SDS011;34426;52.180;4.462;2023-04-09T02:17:34;52.90;;;40.20;;
48629;SDS011;34426;52.180;4.462;2023-04-09T02:20:01;59.30;;;40.67;;
48629;SDS011;34426;52.180;4.462;2023-04-09T02:22:30;54.45;;;40.58;;
48629;SDS011;34426;52.180;4.462;2023-04-09T02:24:58;58.85;;;41.90;;
48629;SDS011;34426;52.180;4.462;2023-04-09T02:27:25;56.45;;;42.15;;
48629;SDS011;34426;52.180;4.462;2023-04-09T02:29:53;56.75;;;40.45;;
48629;SDS011;34426;52.180;4.462;2023-04-09T02:32:20;52.90;;;40.30;;
48629;SDS011;34426;52.180;4.462;2023-04-09T02:34:47;56.00;;;40.00;;
48629;SDS011;34426;52.180;4.462;2023-04-09T02:37:15;53.35;;;40.88;;
48629;SDS011;34426;52.180;4.462;2023-04-09T02:39:44;55.13;;;40.60;;
48629;SDS011;34426;52.180;4.462;2023-04-09T02:42:11;55.47;;;40.05;;
48629;SDS011;34426;52.180;4.462;2023-04-09T02:44:38;53.22;;;40.25;;
48629;SDS011;34426;52.180;4.462;2023-04-09T02:47:06;55.15;;;41.30;;
48629;SDS011;34426;52.180;4.462;2023-04-09T02:49:33;58.15;;;40.00;;
48629;SDS011;34426;52.180;4.462;2023-04-09T02:52:01;52.92;;;39.53;;
48629;SDS011;34426;52.180;4.462;2023-04-09T02:54:28;57.67;;;39.17;;
48629;SDS011;34426;52.180;4.462;2023-04-09T02:56:58;53.00;;;38.92;;
48629;SDS011;34426;52.180;4.462;2023-04-09T02:59:24;53.00;;;40.10;;
48629;SDS011;34426;52.180;4.462;2023-04-09T03:01:51;53.33;;;40.03;;
48629;SDS011;34426;52.180;4.462;2023-04-09T03:04:18;54.17;;;39.67;;
48629;SDS011;34426;52.180;4.462;2023-04-09T03:06:46;53.17;;;39.47;;
48629;SDS011;34426;52.180;4.462;2023-04-09T03:09:13;54.55;;;39.28;;
48629;SDS011;34426;52.180;4.462;2023-04-09T03:11:40;57.22;;;40.70;;
48629;SDS011;34426;52.180;4.462;2023-04-09T03:14:10;57.08;;;39.95;;
48629;SDS011;34426;52.180;4.462;2023-04-09T03:16:37;55.67;;;39.67;;
48629;SDS011;34426;52.180;4.462;2023-04-09T03:19:04;62.15;;;41.83;;
48629;SDS011;34426;52.180;4.462;2023-04-09T03:21:31;60.38;;;41.95;;
48629;SDS011;34426;52.180;4.462;2023-04-09T03:23:59;57.22;;;41.22;;
48629;SDS011;34426;52.180;4.462;2023-04-09T03:26:26;59.70;;;41.10;;
48629;SDS011;34426;52.180;4.462;2023-04-09T03:28:53;57.88;;;40.90;;
48629;SDS011;34426;52.180;4.462;2023-04-09T03:31:23;59.70;;;41.47;;
48629;SDS011;34426;52.180;4.462;2023-04-09T03:33:50;57.20;;;40.75;;
48629;SDS011;34426;52.180;4.462;2023-04-09T03:36:17;65.90;;;42.38;;
48629;SDS011;34426;52.180;4.462;2023-04-09T03:38:45;59.83;;;40.75;;
48629;SDS011;34426;52.180;4.462;2023-04-09T03:41:12;57.50;;;40.75;;
48629;SDS011;34426;52.180;4.462;2023-04-09T03:43:39;60.40;;;40.88;;
48629;SDS011;34426;52.180;4.462;2023-04-09T03:46:10;60.38;;;41.72;;
48629;SDS011;34426;52.180;4.462;2023-04-09T03:48:40;60.15;;;41.30;;
48629;SDS011;34426;52.180;4.462;2023-04-09T03:51:10;63.00;;;41.72;;
48629;SDS011;34426;52.180;4.462;2023-04-09T03:53:38;62.92;;;40.35;;
48629;SDS011;34426;52.180;4.462;2023-04-09T03:56:06;64.20;;;41.85;;
48629;SDS011;34426;52.180;4.462;2023-04-09T03:58:34;56.92;;;40.63;;
48629;SDS011;34426;52.180;4.462;2023-04-09T04:01:02;61.67;;;41.20;;
48629;SDS011;34426;52.180;4.462;2023-04-09T04:03:29;60.65;;;41.38;;
48629;SDS011;34426;52.180;4.462;2023-04-09T04:06:00;57.60;;;39.85;;
48629;SDS011;34426;52.180;4.462;2023-04-09T04:08:28;61.77;;;41.27;;
48629;SDS011;34426;52.180;4.462;2023-04-09T04:10:57;58.63;;;41.17;;
48629;SDS011;34426;52.180;4.462;2023-04-09T04:13:29;55.25;;;38.85;;
48629;SDS011;34426;52.180;4.462;2023-04-09T04:15:57;60.50;;;42.97;;
48629;SDS011;34426;52.180;4.462;2023-04-09T04:18:27;55.75;;;40.28;;
48629;SDS011;34426;52.180;4.462;2023-04-09T04:20:54;62.95;;;41.65;;
48629;SDS011;34426;52.180;4.462;2023-04-09T04:23:23;62.50;;;41.60;;
48629;SDS011;34426;52.180;4.462;2023-04-09T04:25:51;59.08;;;40.83;;
48629;SDS011;34426;52.180;4.462;2023-04-09T04:28:18;62.00;;;41.47;;
48629;SDS011;34426;52.180;4.462;2023-04-09T04:30:45;57.13;;;40.15;;
48629;SDS011;34426;52.180;4.462;2023-04-09T04:33:12;57.33;;;40.92;;
48629;SDS011;34426;52.180;4.462;2023-04-09T04:35:40;57.85;;;39.63;;
48629;SDS011;34426;52.180;4.462;2023-04-09T04:38:07;54.92;;;40.05;;
48629;SDS011;34426;52.180;4.462;2023-04-09T04:40:36;55.22;;;40.63;;
48629;SDS011;34426;52.180;4.462;2023-04-09T04:43:03;57.50;;;40.85;;
48629;SDS011;34426;52.180;4.462;2023-04-09T04:45:31;50.88;;;39.00;;
48629;SDS011;34426;52.180;4.462;2023-04-09T04:47:58;51.45;;;39.55;;
48629;SDS011;34426;52.180;4.462;2023-04-09T04:50:26;54.90;;;40.65;;
48629;SDS011;34426;52.180;4.462;2023-04-09T04:52:53;49.47;;;38.80;;
48629;SDS011;34426;52.180;4.462;2023-04-09T04:55:20;52.95;;;39.15;;
48629;SDS011;34426;52.180;4.462;2023-04-09T04:57:51;50.20;;;38.35;;
48629;SDS011;34426;52.180;4.462;2023-04-09T05:00:18;49.90;;;38.40;;
48629;SDS011;34426;52.180;4.462;2023-04-09T05:02:46;55.45;;;39.10;;
48629;SDS011;34426;52.180;4.462;2023-04-09T05:05:13;49.78;;;38.33;;
48629;SDS011;34426;52.180;4.462;2023-04-09T05:07:41;51.40;;;38.42;;
48629;SDS011;34426;52.180;4.462;2023-04-09T05:10:08;49.45;;;37.85;;
48629;SDS011;34426;52.180;4.462;2023-04-09T05:12:36;50.22;;;37.28;;
48629;SDS011;34426;52.180;4.462;2023-04-09T05:15:05;48.15;;;38.03;;
48629;SDS011;34426;52.180;4.462;2023-04-09T05:17:33;53.10;;;38.28;;
48629;SDS011;34426;52.180;4.462;2023-04-09T05:20:01;48.67;;;38.05;;
48629;SDS011;34426;52.180;4.462;2023-04-09T05:22:28;51.17;;;40.28;;
48629;SDS011;34426;52.180;4.462;2023-04-09T05:24:56;49.60;;;38.17;;
48629;SDS011;34426;52.180;4.462;2023-04-09T05:27:23;47.70;;;37.17;;
48629;SDS011;34426;52.180;4.462;2023-04-09T05:29:51;49.35;;;36.65;;
48629;SDS011;34426;52.180;4.462;2023-04-09T05:32:20;51.60;;;37.53;;
48629;SDS011;34426;52.180;4.462;2023-04-09T05:34:47;45.90;;;36.15;;
48629;SDS011;34426;52.180;4.462;2023-04-09T05:37:17;47.58;;;37.45;;
48629;SDS011;34426;52.180;4.462;2023-04-09T05:39:48;47.75;;;37.15;;
48629;SDS011;34426;52.180;4.462;2023-04-09T05:42:15;48.33;;;37.15;;
48629;SDS011;34426;52.180;4.462;2023-04-09T05:44:42;43.63;;;35.30;;
48629;SDS011;34426;52.180;4.462;2023-04-09T05:47:10;42.15;;;34.42;;
48629;SDS011;34426;52.180;4.462;2023-04-09T05:49:39;45.92;;;35.22;;
48629;SDS011;34426;52.180;4.462;2023-04-09T05:52:06;45.40;;;35.00;;
48629;SDS011;34426;52.180;4.462;2023-04-09T05:54:34;46.17;;;35.95;;
48629;SDS011;34426;52.180;4.462;2023-04-09T05:57:01;42.00;;;34.55;;
48629;SDS011;34426;52.180;4.462;2023-04-09T05:59:28;44.88;;;34.67;;
48629;SDS011;34426;52.180;4.462;2023-04-09T06:01:56;50.35;;;35.00;;
48629;SDS011;34426;52.180;4.462;2023-04-09T06:04:23;46.38;;;36.55;;
48629;SDS011;34426;52.180;4.462;2023-04-09T06:06:52;46.00;;;35.13;;
48629;SDS011;34426;52.180;4.462;2023-04-09T06:09:20;48.70;;;36.22;;
48629;SDS011;34426;52.180;4.462;2023-04-09T06:11:47;47.92;;;35.83;;
48629;SDS011;34426;52.180;4.462;2023-04-09T06:14:16;45.53;;;34.42;;
48629;SDS011;34426;52.180;4.462;2023-04-09T06:16:44;44.88;;;33.25;;
48629;SDS011;34426;52.180;4.462;2023-04-09T06:19:11;48.10;;;34.58;;
48629;SDS011;34426;52.180;4.462;2023-04-09T06:21:41;43.80;;;34.80;;
48629;SDS011;34426;52.180;4.462;2023-04-09T06:24:09;44.13;;;34.65;;
48629;SDS011;34426;52.180;4.462;2023-04-09T06:26:35;47.45;;;35.13;;
48629;SDS011;34426;52.180;4.462;2023-04-09T06:29:02;44.80;;;35.45;;
48629;SDS011;34426;52.180;4.462;2023-04-09T06:31:32;43.70;;;34.38;;
48629;SDS011;34426;52.180;4.462;2023-04-09T06:34:00;41.35;;;34.42;;
48629;SDS011;34426;52.180;4.462;2023-04-09T06:36:27;46.33;;;36.00;;
48629;SDS011;34426;52.180;4.462;2023-04-09T06:38:54;51.35;;;36.10;;
48629;SDS011;34426;52.180;4.462;2023-04-09T06:41:24;45.08;;;35.13;;
48629;SDS011;34426;52.180;4.462;2023-04-09T06:43:52;47.05;;;35.63;;
48629;SDS011;34426;52.180;4.462;2023-04-09T06:46:19;47.63;;;36.00;;
48629;SDS011;34426;52.180;4.462;2023-04-09T06:48:46;47.60;;;35.42;;
48629;SDS011;34426;52.180;4.462;2023-04-09T06:51:14;46.28;;;36.15;;
48629;SDS011;34426;52.180;4.462;2023-04-09T06:53:41;41.72;;;33.95;;
48629;SDS011;34426;52.180;4.462;2023-04-09T06:56:09;45.63;;;35.13;;
48629;SDS011;34426;52.180;4.462;2023-04-09T06:58:38;43.97;;;34.55;;
48629;SDS011;34426;52.180;4.462;2023-04-09T07:01:08;41.40;;;34.25;;
48629;SDS011;34426;52.180;4.462;2023-04-09T07:03:35;42.85;;;35.55;;
48629;SDS011;34426;52.180;4.462;2023-04-09T07:06:03;43.10;;;34.17;;
48629;SDS011;34426;52.180;4.462;2023-04-09T07:08:30;45.65;;;33.90;;
48629;SDS011;34426;52.180;4.462;2023-04-09T07:10:58;46.90;;;35.47;;
48629;SDS011;34426;52.180;4.462;2023-04-09T07:13:25;44.92;;;34.42;;
48629;SDS011;34426;52.180;4.462;2023-04-09T07:15:54;47.78;;;35.95;;
48629;SDS011;34426;52.180;4.462;2023-04-09T07:18:22;44.50;;;34.92;;
48629;SDS011;34426;52.180;4.462;2023-04-09T07:20:52;44.67;;;35.63;;
48629;SDS011;34426;52.180;4.462;2023-04-09T07:23:19;44.65;;;34.40;;
48629;SDS011;34426;52.180;4.462;2023-04-09T07:25:47;45.45;;;35.42;;
48629;SDS011;34426;52.180;4.462;2023-04-09T07:28:14;43.85;;;34.20;;
48629;SDS011;34426;52.180;4.462;2023-04-09T07:30:41;44.17;;;34.40;;
48629;SDS011;34426;52.180;4.462;2023-04-09T07:33:11;47.63;;;35.30;;
48629;SDS011;34426;52.180;4.462;2023-04-09T07:35:38;43.65;;;34.55;;
48629;SDS011;34426;52.180;4.462;2023-04-09T07:38:06;46.42;;;34.63;;
48629;SDS011;34426;52.180;4.462;2023-04-09T07:40:33;45.42;;;35.15;;
48629;SDS011;34426;52.180;4.462;2023-04-09T07:43:01;48.30;;;35.13;;
48629;SDS011;34426;52.180;4.462;2023-04-09T07:45:29;45.78;;;36.10;;
48629;SDS011;34426;52.180;4.462;2023-04-09T07:47:56;44.28;;;35.25;;
48629;SDS011;34426;52.180;4.462;2023-04-09T07:50:25;47.17;;;36.42;;
48629;SDS011;34426;52.180;4.462;2023-04-09T07:52:53;49.55;;;35.40;;
48629;SDS011;34426;52.180;4.462;2023-04-09T07:55:20;45.90;;;36.50;;
48629;SDS011;34426;52.180;4.462;2023-04-09T07:57:48;45.22;;;35.17;;
48629;SDS011;34426;52.180;4.462;2023-04-09T08:00:15;51.28;;;38.67;;
48629;SDS011;34426;52.180;4.462;2023-04-09T08:02:43;57.05;;;39.08;;
48629;SDS011;34426;52.180;4.462;2023-04-09T08:05:11;52.15;;;39.42;;
48629;SDS011;34426;52.180;4.462;2023-04-09T08:07:40;54.05;;;39.72;;
48629;SDS011;34426;52.180;4.462;2023-04-09T08:10:08;53.55;;;40.33;;
48629;SDS011;34426;52.180;4.462;2023-04-09T08:12:36;56.20;;;40.30;;
48629;SDS011;34426;52.180;4.462;2023-04-09T08:15:03;59.08;;;40.33;;
48629;SDS011;34426;52.180;4.462;2023-04-09T08:17:31;57.13;;;39.42;;
48629;SDS011;34426;52.180;4.462;2023-04-09T08:19:59;62.85;;;41.88;;
48629;SDS011;34426;52.180;4.462;2023-04-09T08:22:26;63.17;;;42.97;;
48629;SDS011;34426;52.180;4.462;2023-04-09T08:24:55;60.33;;;42.03;;
48629;SDS011;34426;52.180;4.462;2023-04-09T08:27:23;61.15;;;41.13;;
48629;SDS011;34426;52.180;4.462;2023-04-09T08:29:53;64.18;;;44.17;;
48629;SDS011;34426;52.180;4.462;2023-04-09T08:32:23;66.03;;;43.22;;
48629;SDS011;34426;52.180;4.462;2023-04-09T08:34:50;71.18;;;47.58;;
48629;SDS011;34426;52.180;4.462;2023-04-09T08:37:18;74.63;;;48.05;;
48629;SDS011;34426;52.180;4.462;2023-04-09T08:39:45;71.25;;;45.33;;
48629;SDS011;34426;52.180;4.462;2023-04-09T08:42:14;75.05;;;47.03;;
48629;SDS011;34426;52.180;4.462;2023-04-09T08:44:41;82.25;;;52.22;;
48629;SDS011;34426;52.180;4.462;2023-04-09T08:47:08;83.05;;;52.22;;
48629;SDS011;34426;52.180;4.462;2023-04-09T08:49:38;85.85;;;53.22;;
48629;SDS011;34426;52.180;4.462;2023-04-09T08:52:05;84.43;;;52.58;;
48629;SDS011;34426;52.180;4.462;2023-04-09T08:54:32;77.78;;;48.78;;
48629;SDS011;34426;52.180;4.462;2023-04-09T08:57:03;70.13;;;48.03;;
48629;SDS011;34426;52.180;4.462;2023-04-09T08:59:33;67.57;;;46.03;;
48629;SDS011;34426;52.180;4.462;2023-04-09T09:02:06;75.40;;;48.88;;
48629;SDS011;34426;52.180;4.462;2023-04-09T09:04:42;78.53;;;51.00;;
48629;SDS011;34426;52.180;4.462;2023-04-09T09:07:10;79.70;;;50.15;;
48629;SDS011;34426;52.180;4.462;2023-04-09T09:09:49;80.45;;;51.42;;
48629;SDS011;34426;52.180;4.462;2023-04-09T09:12:28;80.65;;;50.92;;
48629;SDS011;34426;52.180;4.462;2023-04-09T09:15:02;76.35;;;50.70;;
48629;SDS011;34426;52.180;4.462;2023-04-09T09:17:31;86.30;;;52.20;;
48629;SDS011;34426;52.180;4.462;2023-04-09T09:19:59;81.18;;;50.97;;
48629;SDS011;34426;52.180;4.462;2023-04-09T09:22:48;84.35;;;51.33;;
48629;SDS011;34426;52.180;4.462;2023-04-09T09:25:16;81.47;;;51.88;;
48629;SDS011;34426;52.180;4.462;2023-04-09T09:27:43;79.82;;;50.63;;
48629;SDS011;34426;52.180;4.462;2023-04-09T09:30:21;82.88;;;52.45;;
48629;SDS011;34426;52.180;4.462;2023-04-09T09:32:53;91.30;;;55.15;;
48629;SDS011;34426;52.180;4.462;2023-04-09T09:35:29;87.47;;;54.33;;
48629;SDS011;34426;52.180;4.462;2023-04-09T09:38:11;92.72;;;56.47;;
48629;SDS011;34426;52.180;4.462;2023-04-09T09:40:41;89.43;;;58.63;;
48629;SDS011;34426;52.180;4.462;2023-04-09T09:43:09;88.72;;;58.05;;
48629;SDS011;34426;52.180;4.462;2023-04-09T09:45:38;95.28;;;64.18;;
48629;SDS011;34426;52.180;4.462;2023-04-09T09:48:06;85.75;;;57.35;;
48629;SDS011;34426;52.180;4.462;2023-04-09T09:50:35;86.57;;;59.38;;
48629;SDS011;34426;52.180;4.462;2023-04-09T09:53:04;91.15;;;59.15;;
48629;SDS011;34426;52.180;4.462;2023-04-09T09:55:32;85.20;;;58.25;;
48629;SDS011;34426;52.180;4.462;2023-04-09T09:58:10;87.60;;;59.45;;
48629;SDS011;34426;52.180;4.462;2023-04-09T10:00:43;92.40;;;63.22;;
48629;SDS011;34426;52.180;4.462;2023-04-09T10:03:13;85.10;;;58.67;;
48629;SDS011;34426;52.180;4.462;2023-04-09T10:05:51;87.35;;;57.55;;
48629;SDS011;34426;52.180;4.462;2023-04-09T10:08:18;97.53;;;64.22;;
48629;SDS011;34426;52.180;4.462;2023-04-09T10:10:47;80.82;;;57.67;;
48629;SDS011;34426;52.180;4.462;2023-04-09T10:13:18;82.80;;;57.08;;
48629;SDS011;34426;52.180;4.462;2023-04-09T10:15:51;92.30;;;63.53;;
48629;SDS011;34426;52.180;4.462;2023-04-09T10:18:19;83.18;;;58.42;;
48629;SDS011;34426;52.180;4.462;2023-04-09T10:20:48;75.40;;;55.03;;
48629;SDS011;34426;52.180;4.462;2023-04-09T10:23:26;73.15;;;52.95;;
48629;SDS011;34426;52.180;4.462;2023-04-09T10:25:59;74.57;;;52.53;;
48629;SDS011;34426;52.180;4.462;2023-04-09T10:28:26;76.65;;;53.92;;
48629;SDS011;34426;52.180;4.462;2023-04-09T10:30:55;76.32;;;54.55;;
48629;SDS011;34426;52.180;4.462;2023-04-09T10:33:24;72.93;;;52.13;;
48629;SDS011;34426;52.180;4.462;2023-04-09T10:35:52;66.78;;;49.60;;
48629;SDS011;34426;52.180;4.462;2023-04-09T10:38:35;69.20;;;49.58;;
48629;SDS011;34426;52.180;4.462;2023-04-09T10:41:14;65.80;;;48.35;;
48629;SDS011;34426;52.180;4.462;2023-04-09T10:43:47;64.18;;;48.55;;
48629;SDS011;34426;52.180;4.462;2023-04-09T10:46:26;61.83;;;46.72;;
48629;SDS011;34426;52.180;4.462;2023-04-09T10:49:15;62.72;;;48.35;;
48629;SDS011;34426;52.180;4.462;2023-04-09T10:51:47;62.88;;;46.70;;
48629;SDS011;34426;52.180;4.462;2023-04-09T10:57:09;62.83;;;48.10;;
48629;SDS011;34426;52.180;4.462;2023-04-09T10:59:41;59.78;;;47.28;;
48629;SDS011;34426;52.180;4.462;2023-04-09T11:02:20;64.05;;;49.65;;
48629;SDS011;34426;52.180;4.462;2023-04-09T11:05:24;61.65;;;45.60;;
48629;SDS011;34426;52.180;4.462;2023-04-09T11:08:02;62.28;;;47.08;;
48629;SDS011;34426;52.180;4.462;2023-04-09T11:10:31;63.35;;;45.20;;
48629;SDS011;34426;52.180;4.462;2023-04-09T11:12:59;57.10;;;45.50;;
48629;SDS011;34426;52.180;4.462;2023-04-09T11:15:27;60.13;;;47.08;;
48629;SDS011;34426;52.180;4.462;2023-04-09T11:17:56;59.88;;;46.92;;
48629;SDS011;34426;52.180;4.462;2023-04-09T11:20:24;57.05;;;45.80;;
48629;SDS011;34426;52.180;4.462;2023-04-09T11:22:52;59.80;;;46.40;;
48629;SDS011;34426;52.180;4.462;2023-04-09T11:25:20;57.22;;;45.00;;
48629;SDS011;34426;52.180;4.462;2023-04-09T11:27:50;54.78;;;42.85;;
48629;SDS011;34426;52.180;4.462;2023-04-09T11:30:18;55.28;;;44.30;;
48629;SDS011;34426;52.180;4.462;2023-04-09T11:32:46;57.45;;;45.15;;
48629;SDS011;34426;52.180;4.462;2023-04-09T11:35:16;58.83;;;45.00;;
48629;SDS011;34426;52.180;4.462;2023-04-09T11:37:44;58.28;;;45.55;;
48629;SDS011;34426;52.180;4.462;2023-04-09T11:40:15;61.30;;;45.88;;
48629;SDS011;34426;52.180;4.462;2023-04-09T11:42:43;63.35;;;47.50;;
48629;SDS011;34426;52.180;4.462;2023-04-09T11:45:11;54.95;;;44.83;;
48629;SDS011;34426;52.180;4.462;2023-04-09T11:47:39;59.30;;;44.60;;
48629;SDS011;34426;52.180;4.462;2023-04-09T11:50:08;58.40;;;46.45;;
48629;SDS011;34426;52.180;4.462;2023-04-09T11:52:39;57.20;;;45.35;;
48629;SDS011;34426;52.180;4.462;2023-04-09T11:55:08;59.47;;;45.17;;
48629;SDS011;34426;52.180;4.462;2023-04-09T11:57:47;58.55;;;45.10;;
48629;SDS011;34426;52.180;4.462;2023-04-09T12:00:16;56.78;;;44.20;;
48629;SDS011;34426;52.180;4.462;2023-04-09T12:02:45;57.83;;;44.60;;
48629;SDS011;34426;52.180;4.462;2023-04-09T12:05:19;57.85;;;43.70;;
48629;SDS011;34426;52.180;4.462;2023-04-09T12:07:55;55.60;;;43.50;;
48629;SDS011;34426;52.180;4.462;2023-04-09T12:10:25;52.17;;;42.35;;
48629;SDS011;34426;52.180;4.462;2023-04-09T12:12:54;50.83;;;41.00;;
48629;SDS011;34426;52.180;4.462;2023-04-09T12:15:25;48.00;;;40.20;;
48629;SDS011;34426;52.180;4.462;2023-04-09T12:17:58;51.88;;;40.67;;
48629;SDS011;34426;52.180;4.462;2023-04-09T12:20:26;52.63;;;41.63;;
48629;SDS011;34426;52.180;4.462;2023-04-09T12:22:58;53.70;;;41.97;;
48629;SDS011;34426;52.180;4.462;2023-04-09T12:25:27;53.28;;;40.25;;
48629;SDS011;34426;52.180;4.462;2023-04-09T12:27:55;48.65;;;40.42;;
48629;SDS011;34426;52.180;4.462;2023-04-09T12:30:22;47.38;;;38.90;;
48629;SDS011;34426;52.180;4.462;2023-04-09T12:32:50;52.03;;;37.80;;
48629;SDS011;34426;52.180;4.462;2023-04-09T12:35:18;47.45;;;39.25;;
48629;SDS011;34426;52.180;4.462;2023-04-09T12:37:46;45.40;;;36.75;;
48629;SDS011;34426;52.180;4.462;2023-04-09T12:40:15;44.05;;;36.10;;
48629;SDS011;34426;52.180;4.462;2023-04-09T12:42:44;40.53;;;33.17;;
48629;SDS011;34426;52.180;4.462;2023-04-09T12:45:12;41.65;;;34.75;;
48629;SDS011;34426;52.180;4.462;2023-04-09T12:47:40;44.85;;;36.40;;
48629;SDS011;34426;52.180;4.462;2023-04-09T12:50:08;41.20;;;34.45;;
48629;SDS011;34426;52.180;4.462;2023-04-09T12:52:39;39.67;;;33.10;;
48629;SDS011;34426;52.180;4.462;2023-04-09T12:55:07;41.65;;;33.60;;
48629;SDS011;34426;52.180;4.462;2023-04-09T12:57:37;40.25;;;34.25;;
48629;SDS011;34426;52.180;4.462;2023-04-09T13:00:08;44.25;;;34.92;;
48629;SDS011;34426;52.180;4.462;2023-04-09T13:02:36;40.80;;;33.90;;
48629;SDS011;34426;52.180;4.462;2023-04-09T13:05:04;39.53;;;33.00;;
48629;SDS011;34426;52.180;4.462;2023-04-09T13:07:31;36.10;;;31.55;;
48629;SDS011;34426;52.180;4.462;2023-04-09T13:10:02;39.28;;;33.85;;
48629;SDS011;34426;52.180;4.462;2023-04-09T13:12:29;37.80;;;31.40;;
48629;SDS011;34426;52.180;4.462;2023-04-09T13:14:59;36.20;;;31.60;;
48629;SDS011;34426;52.180;4.462;2023-04-09T13:17:26;37.65;;;31.70;;
48629;SDS011;34426;52.180;4.462;2023-04-09T13:19:53;37.40;;;30.05;;
48629;SDS011;34426;52.180;4.462;2023-04-09T13:22:24;36.65;;;30.27;;
48629;SDS011;34426;52.180;4.462;2023-04-09T13:24:51;35.90;;;30.73;;
48629;SDS011;34426;52.180;4.462;2023-04-09T13:27:19;34.00;;;29.15;;
48629;SDS011;34426;52.180;4.462;2023-04-09T13:29:46;32.60;;;26.67;;
48629;SDS011;34426;52.180;4.462;2023-04-09T13:32:15;33.90;;;27.42;;
48629;SDS011;34426;52.180;4.462;2023-04-09T13:34:43;32.78;;;25.13;;
48629;SDS011;34426;52.180;4.462;2023-04-09T13:37:10;32.15;;;26.27;;
48629;SDS011;34426;52.180;4.462;2023-04-09T13:39:38;29.33;;;24.33;;
48629;SDS011;34426;52.180;4.462;2023-04-09T13:42:05;28.58;;;25.10;;
48629;SDS011;34426;52.180;4.462;2023-04-09T13:44:32;25.77;;;22.98;;
48629;SDS011;34426;52.180;4.462;2023-04-09T13:47:00;29.13;;;24.85;;
48629;SDS011;34426;52.180;4.462;2023-04-09T13:49:29;28.40;;;23.50;;
48629;SDS011;34426;52.180;4.462;2023-04-09T13:51:56;32.15;;;24.45;;
48629;SDS011;34426;52.180;4.462;2023-04-09T13:54:24;27.23;;;22.23;;
48629;SDS011;34426;52.180;4.462;2023-04-09T13:56:51;32.40;;;24.42;;
48629;SDS011;34426;52.180;4.462;2023-04-09T13:59:18;29.27;;;23.83;;
48629;SDS011;34426;52.180;4.462;2023-04-09T14:01:45;30.90;;;23.90;;
48629;SDS011;34426;52.180;4.462;2023-04-09T14:04:13;31.23;;;23.15;;
48629;SDS011;34426;52.180;4.462;2023-04-09T14:06:43;29.17;;;23.40;;
48629;SDS011;34426;52.180;4.462;2023-04-09T14:09:10;27.77;;;20.95;;
48629;SDS011;34426;52.180;4.462;2023-04-09T14:11:38;25.63;;;21.73;;
48629;SDS011;34426;52.180;4.462;2023-04-09T14:14:05;26.02;;;21.65;;
48629;SDS011;34426;52.180;4.462;2023-04-09T14:16:33;20.60;;;18.42;;
48629;SDS011;34426;52.180;4.462;2023-04-09T14:19:00;22.90;;;19.25;;
48629;SDS011;34426;52.180;4.462;2023-04-09T14:21:27;22.27;;;19.98;;
48629;SDS011;34426;52.180;4.462;2023-04-09T14:23:56;23.75;;;19.52;;
48629;SDS011;34426;52.180;4.462;2023-04-09T14:26:24;20.42;;;18.23;;
48629;SDS011;34426;52.180;4.462;2023-04-09T14:28:53;20.15;;;17.95;;
48629;SDS011;34426;52.180;4.462;2023-04-09T14:31:21;20.48;;;18.38;;
48629;SDS011;34426;52.180;4.462;2023-04-09T14:33:49;20.00;;;16.40;;